EZY97FU EGAA-EGGP
Flight info
| Callsign | EZY97FU |
|---|---|
| Flight time | 0h 32m |
| Altitude | 17000 |
| Route | LISBO L603 PEPOD Q38 SOSIM L28 PENIL |
| Aircraft | A320/M-SDE2E3FGHIRWXY/LB1 |
Departure
| Time | 2026-05-05 15:48 |
|---|---|
| Airport | Belfast International Airport (EGAA) |
Arrival
| Time | 2026-05-05 16:21 |
|---|---|
| Airport | Liverpool John Lennon Airport (EGGP) |
| Time | Latitude | Longitude | Altitude | Speed | Heading |
|---|---|---|---|---|---|
| 2026-05-05 15:29 | 54.66081 | -6.21649 | 275 ft | 0 kts | 335° |
| 2026-05-05 15:41 | 54.66069 | -6.21639 | 272 ft | 4 kts | 335° |
| 2026-05-05 15:42 | 54.66045 | -6.21619 | 274 ft | 4 kts | 335° |
| 2026-05-05 15:42 | 54.66021 | -6.21600 | 276 ft | 4 kts | 335° |
| 2026-05-05 15:42 | 54.65997 | -6.21580 | 273 ft | 4 kts | 335° |
| 2026-05-05 15:42 | 54.65977 | -6.21565 | 275 ft | 4 kts | 332° |
| 2026-05-05 15:43 | 54.65961 | -6.21535 | 279 ft | 4 kts | 285° |
| 2026-05-05 15:43 | 54.65956 | -6.21493 | 278 ft | 4 kts | 268° |
| 2026-05-05 15:43 | 54.65963 | -6.21451 | 273 ft | 4 kts | 234° |
| 2026-05-05 15:43 | 54.65976 | -6.21418 | 280 ft | 2 kts | 245° |
| 2026-05-05 15:44 | 54.65987 | -6.21377 | 274 ft | 3 kts | 245° |
| 2026-05-05 15:44 | 54.65989 | -6.21371 | 276 ft | 0 kts | 245° |
| 2026-05-05 15:45 | 54.65985 | -6.21383 | 275 ft | 6 kts | 245° |
| 2026-05-05 15:45 | 54.65952 | -6.21506 | 275 ft | 15 kts | 245° |
| 2026-05-05 15:46 | 54.65906 | -6.21678 | 274 ft | 16 kts | 245° |
| 2026-05-05 15:46 | 54.65860 | -6.21851 | 272 ft | 16 kts | 245° |
| 2026-05-05 15:46 | 54.65812 | -6.22026 | 272 ft | 16 kts | 245° |
| 2026-05-05 15:46 | 54.65773 | -6.22214 | 272 ft | 17 kts | 261° |
| 2026-05-05 15:47 | 54.65758 | -6.22429 | 272 ft | 19 kts | 263° |
| 2026-05-05 15:47 | 54.65747 | -6.22582 | 272 ft | 20 kts | 264° |
| 2026-05-05 15:47 | 54.65665 | -6.22789 | 272 ft | 18 kts | 160° |
| 2026-05-05 15:47 | 54.65555 | -6.22730 | 272 ft | 16 kts | 162° |
| 2026-05-05 15:48 | 54.65480 | -6.22630 | 272 ft | 16 kts | 99° |
| 2026-05-05 15:48 | 54.65602 | -6.22125 | 272 ft | 89 kts | 65° |
| 2026-05-05 15:48 | 54.65975 | -6.20738 | 277 ft | 160 kts | 69° |
| 2026-05-05 15:48 | 54.66493 | -6.18952 | 957 ft | 165 kts | 61° |
| 2026-05-05 15:49 | 54.66969 | -6.17130 | 1888 ft | 170 kts | 63° |
| 2026-05-05 15:49 | 54.67149 | -6.15105 | 2464 ft | 183 kts | 99° |
| 2026-05-05 15:49 | 54.66372 | -6.13299 | 2936 ft | 191 kts | 148° |
| 2026-05-05 15:49 | 54.65169 | -6.12870 | 3310 ft | 170 kts | 173° |
| 2026-05-05 15:50 | 54.63986 | -6.12533 | 3727 ft | 176 kts | 167° |
| 2026-05-05 15:50 | 54.62777 | -6.12127 | 4198 ft | 182 kts | 168° |
| 2026-05-05 15:50 | 54.61508 | -6.11737 | 4705 ft | 192 kts | 168° |
| 2026-05-05 15:50 | 54.60085 | -6.11307 | 5160 ft | 225 kts | 169° |
| 2026-05-05 15:51 | 54.58520 | -6.10858 | 5729 ft | 227 kts | 171° |
| 2026-05-05 15:51 | 54.56982 | -6.10434 | 6531 ft | 218 kts | 172° |
| 2026-05-05 15:51 | 54.55472 | -6.09985 | 7029 ft | 235 kts | 168° |
| 2026-05-05 15:51 | 54.53838 | -6.09009 | 7659 ft | 261 kts | 155° |
| 2026-05-05 15:52 | 54.52164 | -6.07436 | 8378 ft | 289 kts | 150° |
| 2026-05-05 15:52 | 54.50557 | -6.05297 | 9215 ft | 296 kts | 131° |
| 2026-05-05 15:52 | 54.49251 | -6.02507 | 10026 ft | 300 kts | 128° |
| 2026-05-05 15:52 | 54.47941 | -5.99685 | 10958 ft | 309 kts | 128° |
| 2026-05-05 15:53 | 54.46557 | -5.96717 | 11709 ft | 327 kts | 129° |
| 2026-05-05 15:53 | 54.45131 | -5.93606 | 12741 ft | 334 kts | 128° |
| 2026-05-05 15:53 | 54.43674 | -5.90406 | 13685 ft | 345 kts | 129° |
| 2026-05-05 15:53 | 54.42137 | -5.87204 | 14690 ft | 349 kts | 130° |
| 2026-05-05 15:54 | 54.40548 | -5.84020 | 15624 ft | 354 kts | 131° |
| 2026-05-05 15:54 | 54.39942 | -5.82824 | 15966 ft | 356 kts | 131° |
| 2026-05-05 15:54 | 54.38742 | -5.80473 | 16632 ft | 360 kts | 132° |
| 2026-05-05 15:55 | 54.37046 | -5.77127 | 16955 ft | 383 kts | 131° |
| 2026-05-05 15:55 | 54.35253 | -5.73535 | 17052 ft | 409 kts | 131° |
| 2026-05-05 15:55 | 54.33406 | -5.69793 | 17068 ft | 405 kts | 130° |
| 2026-05-05 15:55 | 54.31639 | -5.66179 | 17070 ft | 387 kts | 130° |
| 2026-05-05 15:56 | 54.29954 | -5.62724 | 17069 ft | 370 kts | 130° |
| 2026-05-05 15:56 | 54.28321 | -5.59378 | 17070 ft | 364 kts | 130° |
| 2026-05-05 15:56 | 54.26706 | -5.56044 | 17072 ft | 368 kts | 129° |
| 2026-05-05 15:56 | 54.25100 | -5.52462 | 17075 ft | 391 kts | 127° |
| 2026-05-05 15:57 | 54.23460 | -5.48588 | 17070 ft | 411 kts | 126° |
| 2026-05-05 15:57 | 54.21795 | -5.44552 | 17067 ft | 418 kts | 126° |
| 2026-05-05 15:57 | 54.20108 | -5.40444 | 17068 ft | 431 kts | 126° |
| 2026-05-05 15:57 | 54.18354 | -5.36199 | 17068 ft | 441 kts | 126° |
| 2026-05-05 15:58 | 54.16567 | -5.31918 | 17067 ft | 444 kts | 126° |
| 2026-05-05 15:58 | 54.15351 | -5.29029 | 17069 ft | 444 kts | 126° |
| 2026-05-05 15:58 | 54.13538 | -5.24753 | 17068 ft | 445 kts | 127° |
| 2026-05-05 15:58 | 54.11740 | -5.20549 | 17066 ft | 445 kts | 127° |
| 2026-05-05 15:59 | 54.09906 | -5.16290 | 17067 ft | 445 kts | 127° |
| 2026-05-05 15:59 | 54.08075 | -5.12045 | 17068 ft | 445 kts | 127° |
| 2026-05-05 15:59 | 54.06250 | -5.07796 | 17068 ft | 445 kts | 127° |
| 2026-05-05 15:59 | 54.04426 | -5.03537 | 17062 ft | 445 kts | 127° |
| 2026-05-05 16:00 | 54.02600 | -4.99281 | 17062 ft | 445 kts | 127° |
| 2026-05-05 16:00 | 54.00770 | -4.95028 | 17065 ft | 446 kts | 127° |
| 2026-05-05 16:00 | 53.98935 | -4.90777 | 17065 ft | 446 kts | 127° |
| 2026-05-05 16:00 | 53.97102 | -4.86530 | 17065 ft | 445 kts | 127° |
| 2026-05-05 16:01 | 53.95269 | -4.82285 | 17057 ft | 445 kts | 127° |
| 2026-05-05 16:01 | 53.93437 | -4.78050 | 17050 ft | 445 kts | 127° |
| 2026-05-05 16:01 | 53.91602 | -4.73822 | 17051 ft | 445 kts | 127° |
| 2026-05-05 16:01 | 53.89761 | -4.69600 | 17043 ft | 445 kts | 127° |
| 2026-05-05 16:02 | 53.87919 | -4.65386 | 17056 ft | 445 kts | 127° |
| 2026-05-05 16:02 | 53.86074 | -4.61176 | 17054 ft | 445 kts | 127° |
| 2026-05-05 16:02 | 53.84231 | -4.56980 | 17051 ft | 444 kts | 127° |
| 2026-05-05 16:02 | 53.82394 | -4.52769 | 17049 ft | 445 kts | 125° |
| 2026-05-05 16:03 | 53.80916 | -4.48170 | 17048 ft | 445 kts | 112° |
| 2026-05-05 16:03 | 53.79788 | -4.43295 | 17048 ft | 446 kts | 111° |
| 2026-05-05 16:03 | 53.78662 | -4.38414 | 17045 ft | 446 kts | 111° |
| 2026-05-05 16:03 | 53.77526 | -4.33525 | 17043 ft | 446 kts | 112° |
| 2026-05-05 16:04 | 53.76390 | -4.28660 | 17043 ft | 446 kts | 112° |
| 2026-05-05 16:04 | 53.75251 | -4.23789 | 17043 ft | 444 kts | 112° |
| 2026-05-05 16:04 | 53.74144 | -4.19076 | 16837 ft | 416 kts | 112° |
| 2026-05-05 16:04 | 53.73107 | -4.14686 | 16585 ft | 389 kts | 112° |
| 2026-05-05 16:05 | 53.72138 | -4.10590 | 16405 ft | 363 kts | 112° |
| 2026-05-05 16:05 | 53.71224 | -4.06713 | 15901 ft | 351 kts | 112° |
| 2026-05-05 16:05 | 53.70335 | -4.02950 | 15476 ft | 337 kts | 112° |
| 2026-05-05 16:05 | 53.69484 | -3.99352 | 15111 ft | 324 kts | 112° |
| 2026-05-05 16:06 | 53.68659 | -3.95878 | 14755 ft | 313 kts | 112° |
| 2026-05-05 16:06 | 53.67864 | -3.92533 | 14418 ft | 305 kts | 112° |
| 2026-05-05 16:06 | 53.67073 | -3.89209 | 14064 ft | 306 kts | 111° |
| 2026-05-05 16:06 | 53.66279 | -3.85881 | 13706 ft | 306 kts | 111° |
| 2026-05-05 16:07 | 53.65486 | -3.82558 | 13340 ft | 305 kts | 111° |
| 2026-05-05 16:07 | 53.64693 | -3.79247 | 12982 ft | 304 kts | 111° |
| 2026-05-05 16:07 | 53.63899 | -3.75952 | 12632 ft | 303 kts | 111° |
| 2026-05-05 16:07 | 53.63106 | -3.72669 | 12267 ft | 302 kts | 111° |
| 2026-05-05 16:08 | 53.62316 | -3.69394 | 11908 ft | 302 kts | 112° |
| 2026-05-05 16:08 | 53.61321 | -3.66239 | 11546 ft | 306 kts | 121° |
| 2026-05-05 16:08 | 53.60365 | -3.63068 | 11200 ft | 303 kts | 112° |
| 2026-05-05 16:08 | 53.59544 | -3.59810 | 10855 ft | 301 kts | 112° |
| 2026-05-05 16:09 | 53.58741 | -3.56559 | 10509 ft | 300 kts | 111° |
| 2026-05-05 16:09 | 53.57937 | -3.53327 | 10157 ft | 299 kts | 112° |
| 2026-05-05 16:09 | 53.57131 | -3.50110 | 9777 ft | 298 kts | 111° |
| 2026-05-05 16:09 | 53.56347 | -3.46895 | 9417 ft | 295 kts | 110° |
| 2026-05-05 16:10 | 53.55606 | -3.43694 | 9051 ft | 292 kts | 110° |
| 2026-05-05 16:10 | 53.54881 | -3.40523 | 8695 ft | 289 kts | 109° |
| 2026-05-05 16:10 | 53.54151 | -3.37382 | 8295 ft | 288 kts | 110° |
| 2026-05-05 16:10 | 53.53416 | -3.34264 | 7917 ft | 286 kts | 110° |
| 2026-05-05 16:11 | 53.52693 | -3.31223 | 7785 ft | 274 kts | 110° |
| 2026-05-05 16:11 | 53.50696 | -3.22878 | 7352 ft | 242 kts | 110° |
| 2026-05-05 16:12 | 53.50071 | -3.20311 | 7138 ft | 244 kts | 109° |
| 2026-05-05 16:12 | 53.48577 | -3.14201 | 6829 ft | 284 kts | 110° |
| 2026-05-05 16:13 | 53.46509 | -3.05626 | 5469 ft | 251 kts | 110° |
| 2026-05-05 16:13 | 53.45871 | -3.02938 | 4902 ft | 245 kts | 110° |
| 2026-05-05 16:13 | 53.45244 | -3.00303 | 4364 ft | 238 kts | 110° |
| 2026-05-05 16:14 | 53.44108 | -2.95527 | 3906 ft | 212 kts | 109° |
| 2026-05-05 16:14 | 53.42995 | -2.90962 | 2983 ft | 214 kts | 109° |
| 2026-05-05 16:15 | 53.41710 | -2.86358 | 2350 ft | 219 kts | 117° |
| 2026-05-05 16:15 | 53.40344 | -2.81810 | 1996 ft | 217 kts | 114° |
| 2026-05-05 16:16 | 53.39060 | -2.77197 | 1994 ft | 221 kts | 113° |
| 2026-05-05 16:16 | 53.37837 | -2.72914 | 2002 ft | 180 kts | 113° |
| 2026-05-05 16:17 | 53.36709 | -2.69492 | 2242 ft | 165 kts | 117° |
| 2026-05-05 16:17 | 53.36128 | -2.67865 | 2433 ft | 162 kts | 118° |
| 2026-05-05 16:18 | 53.34608 | -2.65320 | 2327 ft | 151 kts | 178° |
| 2026-05-05 16:18 | 53.33650 | -2.65898 | 2237 ft | 162 kts | 232° |
| 2026-05-05 16:18 | 53.33527 | -2.69555 | 2573 ft | 182 kts | 292° |
| 2026-05-05 16:19 | 53.33818 | -2.71546 | 2431 ft | 169 kts | 280° |
| 2026-05-05 16:19 | 53.33813 | -2.73454 | 2080 ft | 160 kts | 268° |
| 2026-05-05 16:19 | 53.33549 | -2.77097 | 1220 ft | 154 kts | 273° |
| 2026-05-05 16:20 | 53.33573 | -2.80504 | 553 ft | 144 kts | 268° |
| 2026-05-05 16:20 | 53.33427 | -2.83623 | 82 ft | 122 kts | 267° |
| 2026-05-05 16:21 | 53.33363 | -2.85120 | 82 ft | 43 kts | 267° |
| 2026-05-05 16:22 | 53.33475 | -2.85737 | 84 ft | 4 kts | 292° |
| 2026-05-05 16:22 | 53.33500 | -2.85923 | 87 ft | 10 kts | 323° |
| 2026-05-05 16:23 | 53.33555 | -2.85943 | 88 ft | 4 kts | 1° |
| 2026-05-05 16:23 | 53.33576 | -2.85938 | 85 ft | 3 kts | 20° |
| 2026-05-05 16:23 | 53.33598 | -2.85864 | 90 ft | 2 kts | 82° |
| 2026-05-05 16:24 | 53.33599 | -2.85846 | 89 ft | 1 kts | 86° |
| 2026-05-05 16:24 | 53.33600 | -2.85832 | 89 ft | 4 kts | 85° |
| 2026-05-05 16:24 | 53.33641 | -2.85794 | 87 ft | 0 kts | 1° |
| 2026-05-05 16:25 | 53.33651 | -2.85794 | 86 ft | 1 kts | 1° |
| 2026-05-05 16:25 | 53.33655 | -2.85794 | 86 ft | 0 kts | 2° |
| 2026-05-05 16:25 | 53.33652 | -2.85794 | 86 ft | 0 kts | 0° |
| 2026-05-05 16:26 | 53.33653 | -2.85794 | 86 ft | 0 kts | 360° |